Latest Weather Observations for Wangaratta

IDV60801

Issued at 9:35 pm EST Friday 1 August 2014 (issued every 30 minutes, with the page automatically refreshed every 10 minutes)

About weather observations | Map of weather stations | Latest weather observations for VIC | Other Formats
Station Details ID: 082138 Name: WANGARATTA AERO Lat: -36.42 Lon: 146.31 Height: 152.6 m
Data from the previous 72 hours. | See also: Recent months at Wangaratta
Date/Time
EST
Temp
°C
App
Temp
°C
Dew
Point
Rel
Hum
%
Delta-T
°C
Wind Press
QNH
hPa
Press
MSL
hPa
Rain
since 9 am
mm
Dir
 
Spd
km/h
Gust
km/h
Spd
kts
Gust
kts
01/09:30pm 5.2 -1.3 2.4 82 1.1 WSW 26 35 14 19 1019.0 - 1.0
01/09:00pm 5.3 -0.8 2.5 82 1.1 W 24 39 13 21 1018.0 1018.3 1.0
01/08:30pm 5.6 -0.6 2.3 79 1.4 W 24 33 13 18 1017.4 - 1.0
01/08:00pm 5.7 -0.8 2.4 79 1.4 W 26 33 14 18 1017.0 - 1.0
01/07:30pm 5.9 1.5 2.7 80 1.3 W 15 22 8 12 1016.5 - 1.0
01/07:00pm 5.9 1.1 2.5 79 1.4 WSW 17 26 9 14 1015.9 - 1.0
01/06:30pm 5.9 0.2 2.9 81 1.3 W 22 32 12 17 1014.8 - 1.0
01/06:00pm 4.3 0.5 2.0 85 0.9 W 11 17 6 9 1013.9 1014.1 1.0
01/05:30pm 5.5 1.2 3.5 87 0.8 WSW 15 19 8 10 1013.1 - 1.0
01/05:10pm 7.0 0.2 2.9 75 1.7 SW 28 46 15 25 1012.9 - 0.8
01/05:00pm 7.6 1.2 3.3 74 1.8 SW 26 37 14 20 1012.4 - 0.8
01/04:30pm 8.0 2.1 4.0 76 1.7 WSW 24 37 13 20 1011.5 - 0.8
01/04:14pm 8.3 1.6 3.8 73 2.0 WSW 28 46 15 25 1011.3 - 0.8
01/04:00pm 8.4 2.5 3.7 72 2.0 W 24 39 13 21 1010.9 - 0.8
01/03:30pm 8.3 3.4 4.3 76 1.8 W 19 26 10 14 1010.3 - 0.8
01/03:00pm 8.3 2.1 4.5 77 1.7 W 26 39 14 21 1010.0 1010.2 0.8
01/02:30pm 8.4 2.7 4.8 78 1.6 W 24 39 13 21 1009.2 - 0.8
01/02:01pm 8.9 2.2 3.7 70 2.3 W 28 48 15 26 1009.0 - 0.8
01/02:00pm 8.8 2.5 3.8 71 2.2 W 26 44 14 24 1009.0 - 0.8
01/01:30pm 7.8 2.9 4.9 82 1.3 W 20 33 11 18 1009.0 - 0.8
01/01:00pm 6.0 1.2 4.6 91 0.6 W 19 41 10 22 1009.3 - 0.8
01/12:50pm 5.6 -1.2 3.3 85 1.0 W 28 50 15 27 1009.4 - 0.4
01/12:30pm 7.2 0.9 3.8 79 1.5 WNW 26 35 14 19 1009.1 - 0.0
01/12:00pm 7.2 2.6 3.6 78 1.5 WNW 17 26 9 14 1009.2 1009.4 0.0
01/11:30am 6.6 1.6 3.6 81 1.3 NW 19 24 10 13 1009.2 - 0.0
01/11:00am 6.3 2.1 3.6 83 1.1 NW 15 20 8 11 1009.4 - 0.0
01/10:30am 6.0 0.4 3.2 82 1.2 WNW 22 30 12 16 1009.4 - 0.0
01/10:00am 5.6 1.7 3.6 87 0.8 NNW 13 19 7 10 1009.3 - 0.0
01/09:30am 5.6 0.6 3.4 86 0.9 NNW 19 26 10 14 1008.7 - 0.0
01/09:00am 5.3 1.0 3.3 87 0.8 NNW 15 22 8 12 1008.8 1009.0 1.6
01/08:30am 5.4 0.7 3.3 86 0.9 NNW 17 24 9 13 1008.7 - 1.6
01/08:00am 5.4 1.1 3.4 87 0.8 NW 15 22 8 12 1008.7 - 1.6
01/07:30am 5.2 2.1 3.5 89 0.7 N 9 13 5 7 1008.7 - 1.6
01/07:00am 5.2 2.1 3.4 88 0.8 NNW 9 15 5 8 1008.5 - 1.6
01/06:30am 5.2 1.7 3.4 88 0.8 N 11 15 6 8 1008.0 - 1.6
01/06:00am 5.1 1.9 3.3 88 0.8 NNW 9 13 5 7 1007.8 1008.0 1.6
01/05:30am 5.1 2.5 3.1 87 0.8 W 6 9 3 5 1007.7 - 1.6
01/05:00am 4.6 1.9 2.8 88 0.7 N 6 7 3 4 1007.1 - 1.6
01/04:30am 4.9 1.3 2.8 86 0.9 NNW 11 22 6 12 1006.7 - 1.4
01/04:00am 5.1 0.4 3.0 86 0.9 WNW 17 26 9 14 1006.3 - 1.4
01/03:30am 5.1 0.4 3.0 86 0.9 WNW 17 24 9 13 1006.2 - 1.4
01/03:00am 5.5 -0.2 3.0 84 1.0 WNW 22 32 12 17 1006.1 1006.3 1.4
01/02:30am 5.9 -0.1 3.2 83 1.1 WNW 24 33 13 18 1005.8 - 1.4
01/02:00am 6.1 1.2 3.9 86 0.9 WNW 19 26 10 14 1005.8 - 1.4
01/01:30am 6.7 2.2 4.2 84 1.1 W 17 24 9 13 1005.7 - 1.4
01/01:00am 6.9 2.9 4.7 86 1.0 WNW 15 20 8 11 1005.5 - 1.4
01/12:30am 7.1 1.0 4.9 86 1.0 W 26 37 14 20 1005.3 - 1.4
01/12:00am 7.2 1.6 5.3 88 0.9 W 24 37 13 20 1005.3 1005.5 1.4
 
Date/Time
EST
Temp
°C
App
Temp
°C
Dew
Point
Rel
Hum
%
Delta-T
°C
Wind Press
QNH
hPa
Press
MSL
hPa
Rain
since 9 am
mm
Dir
 
Spd
km/h
Gust
km/h
Spd
kts
Gust
kts
31/11:30pm 7.2 0.9 5.7 90 0.7 W 28 41 15 22 1005.3 - 1.4
31/11:00pm 7.0 1.4 5.6 91 0.6 W 24 32 13 17 1004.9 - 1.2
31/10:30pm 7.5 1.9 5.3 86 1.0 W 24 35 13 19 1004.5 - 0.4
31/10:26pm 7.5 2.6 5.1 85 1.1 W 20 43 11 23 1004.2 - 0.2
31/10:01pm 8.4 -0.2 4.6 77 1.7 WSW 39 57 21 31 1004.0 - 0.0
31/10:00pm 8.4 -0.6 4.4 76 1.8 WSW 41 57 22 31 1003.9 - 0.0
31/09:50pm 8.9 0.7 4.5 74 2.0 WSW 37 56 20 30 1003.7 - 0.0
31/09:30pm 9.6 2.7 4.6 71 2.2 WSW 30 44 16 24 1003.4 - 0.0
31/09:15pm 9.8 2.5 4.6 70 2.3 WSW 32 50 17 27 1003.1 - 0.0
31/09:00pm 10.1 2.2 4.5 68 2.5 WSW 35 52 19 28 1003.0 1003.3 0.0
31/08:30pm 10.4 1.0 4.3 66 2.7 WSW 43 61 23 33 1002.5 - 0.0
31/08:04pm 11.0 1.4 4.5 64 2.9 WSW 44 63 24 34 1002.0 - 0.0
31/08:00pm 11.4 1.5 4.6 63 3.1 WSW 46 63 25 34 1002.0 - 0.0
31/07:57pm 12.1 2.2 5.0 62 3.3 WSW 46 63 25 34 1002.1 - 0.0
31/07:49pm 14.6 8.2 5.1 53 4.5 W 28 46 15 25 1001.5 - 0.0
31/07:30pm 14.3 9.2 4.3 51 4.6 N 20 26 11 14 1000.3 - 0.0
31/07:00pm 14.2 10.1 4.5 52 4.5 N 15 19 8 10 1000.7 - 0.0
31/06:30pm 14.7 10.6 4.1 49 4.9 N 15 19 8 10 1000.8 - 0.0
31/06:00pm 15.7 11.5 3.8 45 5.6 N 15 20 8 11 1000.6 1000.9 0.0
31/05:30pm 16.3 11.7 3.7 43 5.9 N 17 24 9 13 1000.7 - 0.0
31/05:00pm 17.4 11.8 3.3 39 6.6 NNW 22 30 12 16 1000.7 - 0.0
31/04:30pm 18.1 10.9 3.2 37 7.0 NNW 30 41 16 22 1000.7 - 0.0
31/04:00pm 18.7 11.5 2.9 35 7.4 NNW 30 43 16 23 1000.9 - 0.0
31/03:39pm 19.0 10.3 2.0 32 7.8 NNW 37 56 20 30 1000.9 - 0.0
31/03:30pm 19.0 10.1 2.8 34 7.6 NNW 39 54 21 29 1000.9 - 0.0
31/03:22pm 18.9 10.8 3.1 35 7.4 NNW 35 54 19 29 1001.0 - 0.0
31/03:00pm 18.8 10.9 4.2 38 7.0 NNW 35 50 19 27 1001.7 1002.0 0.0
31/02:33pm 18.8 11.0 4.9 40 6.8 NNW 35 54 19 29 1002.1 - 0.0
31/02:30pm 18.8 10.1 4.2 38 7.0 NNW 39 54 21 29 1002.1 - 0.0
31/02:00pm 18.5 11.3 5.7 43 6.3 NNW 33 44 18 24 1002.3 - 0.0
31/01:30pm 17.7 10.7 6.9 49 5.4 N 33 44 18 24 1003.2 - 0.0
31/01:15pm 17.4 9.5 6.3 48 5.5 N 37 57 20 31 1003.6 - 0.0
31/01:00pm 17.3 10.5 7.1 51 5.1 N 32 44 17 24 1004.0 - 0.0
31/12:34pm 16.5 9.6 6.3 51 5.0 N 32 52 17 28 1004.7 - 0.0
31/12:30pm 16.6 10.1 6.7 52 4.9 N 30 41 16 22 1004.9 - 0.0
31/12:19pm 16.2 9.1 6.3 52 4.9 N 33 52 18 28 1005.4 - 0.0
31/12:00pm 16.1 10.1 7.1 55 4.5 N 28 41 15 22 1006.2 1006.5 0.0
31/11:50am 15.9 10.1 7.9 59 4.0 N 28 46 15 25 1006.6 - 0.0
31/11:30am 14.9 8.5 7.0 59 3.9 N 30 44 16 24 1007.2 - 0.0
31/11:00am 13.5 7.9 7.3 66 3.0 N 26 33 14 18 1008.2 - 0.0
31/10:30am 11.9 6.8 5.8 66 2.9 N 22 32 12 17 1009.0 - 0.0
31/10:00am 11.3 6.5 5.8 69 2.6 N 20 32 11 17 1009.4 - 0.0
31/09:30am 10.3 4.3 5.5 72 2.2 N 26 35 14 19 1009.8 - 0.0
31/09:00am 9.6 4.0 5.6 76 1.8 N 24 32 13 17 1010.2 1010.6 0.0
31/08:30am 9.2 4.1 5.8 79 1.6 N 22 30 12 16 1010.6 - 0.0
31/08:00am 8.9 4.2 6.2 83 1.3 N 20 30 11 16 1010.7 - 0.0
31/07:30am 8.7 4.6 6.3 85 1.1 N 17 20 9 11 1010.9 - 0.0
31/07:00am 9.1 5.2 6.9 86 1.0 N 17 22 9 12 1010.8 - 0.0
31/06:30am 9.6 6.7 8.0 90 0.8 N 13 17 7 9 1010.9 - 0.0
31/06:00am 9.9 7.5 8.5 91 0.7 N 11 17 6 9 1010.9 1011.3 0.0
31/05:30am 10.2 7.9 9.0 92 0.6 N 11 15 6 8 1011.0 - 0.0
31/05:00am 10.5 7.8 8.9 90 0.8 N 13 17 7 9 1011.3 - 0.0
31/04:30am 10.7 7.6 9.0 89 0.8 N 15 19 8 10 1011.6 - 0.0
31/04:00am 10.9 8.3 9.2 89 0.9 N 13 17 7 9 1012.0 - 0.0
31/03:30am 11.1 8.1 9.2 88 1.0 N 15 19 8 10 1012.6 - 0.0
31/03:00am 11.3 8.0 9.4 88 1.0 N 17 20 9 11 1012.5 1012.8 0.0
31/02:30am 11.3 8.0 9.4 88 1.0 N 17 22 9 12 1012.9 - 0.0
31/02:00am 11.6 8.6 9.2 85 1.2 N 15 19 8 10 1013.3 - 0.0
31/01:30am 10.9 8.3 9.3 90 0.8 N 13 15 7 8 1013.4 - 0.0
31/01:00am 10.8 8.3 9.7 93 0.6 NNE 13 17 7 9 1013.7 - 0.0
31/12:30am 9.5 6.7 8.4 93 0.5 NNE 13 15 7 8 1014.1 - 0.0
31/12:00am 10.6 7.8 8.7 88 0.9 N 13 13 7 7 1014.3 1014.6 0.0
 
Date/Time
EST
Temp
°C
App
Temp
°C
Dew
Point
Rel
Hum
%
Delta-T
°C
Wind Press
QNH
hPa
Press
MSL
hPa
Rain
since 9 am
mm
Dir
 
Spd
km/h
Gust
km/h
Spd
kts
Gust
kts
30/11:30pm 11.5 8.8 9.1 85 1.2 N 13 15 7 8 1014.8 - 0.0
30/11:00pm 13.0 10.5 9.6 80 1.7 N 13 17 7 9 1014.9 - 0.0
30/10:30pm 13.2 11.0 9.5 78 1.9 N 11 13 6 7 1015.2 - 0.0
30/10:00pm 12.6 10.4 9.4 81 1.6 N 11 13 6 7 1015.3 - 0.0
30/09:30pm 12.8 10.0 10.0 83 1.4 N 15 17 8 9 1015.2 - 0.0
30/09:00pm 13.1 10.8 10.3 83 1.5 N 13 17 7 9 1015.3 1015.6 0.0
30/08:30pm 13.2 11.6 10.2 82 1.6 N 9 11 5 6 1015.4 - 0.0
30/08:00pm 13.9 11.9 10.3 79 1.9 N 11 17 6 9 1015.5 - 0.0
30/07:30pm 13.7 11.5 10.7 82 1.6 N 13 17 7 9 1015.6 - 0.0
30/07:00pm 13.7 11.0 10.5 81 1.7 N 15 19 8 10 1015.7 - 0.0
30/06:30pm 13.7 11.5 10.9 83 1.5 N 13 19 7 10 1015.3 - 0.0
30/06:00pm 13.9 12.0 10.5 80 1.8 N 11 15 6 8 1015.2 1015.5 0.0
30/05:30pm 14.0 12.1 10.6 80 1.8 N 11 15 6 8 1015.0 - 0.0
30/05:00pm 14.3 12.1 10.7 79 1.9 N 13 17 7 9 1015.1 - 0.0
30/04:30pm 14.6 12.3 10.6 77 2.1 N 13 19 7 10 1015.0 - 0.0
30/04:00pm 14.8 12.1 10.4 75 2.3 NNW 15 22 8 12 1014.8 - 0.0
30/03:30pm 14.6 11.6 10.8 78 2.0 NNW 17 24 9 13 1014.9 - 0.0
30/03:00pm 14.7 11.8 10.9 78 2.0 NW 17 22 9 12 1015.0 1015.3 0.0
30/02:30pm 14.5 11.6 11.1 80 1.8 NNW 17 30 9 16 1015.0 - 0.0
30/02:00pm 14.5 11.1 11.3 81 1.7 NNW 20 28 11 15 1015.2 - 0.0
30/01:30pm 14.5 11.2 11.6 83 1.6 N 20 26 11 14 1015.3 - 0.0
30/01:00pm 13.7 11.4 11.9 89 1.0 NNW 15 24 8 13 1015.8 - 0.0
30/12:30pm 13.7 10.2 10.9 83 1.5 NW 20 26 11 14 1016.1 - 0.0
30/12:00pm 13.9 11.4 10.9 82 1.6 WNW 15 22 8 12 1016.5 1016.9 0.0
30/11:30am 13.2 9.7 10.9 86 1.2 WNW 20 28 11 15 1017.0 - 0.0
30/11:00am 13.2 9.8 10.6 84 1.4 WNW 19 24 10 13 1017.3 - 0.0
30/10:30am 13.1 9.8 11.0 87 1.1 WNW 19 26 10 14 1017.4 - 0.0
30/10:00am 12.9 9.3 10.4 85 1.3 WNW 20 28 11 15 1017.2 - 0.0
30/09:30am 12.9 9.3 10.6 86 1.2 WNW 20 26 11 14 1016.9 - 0.0
30/09:00am 12.9 8.9 10.4 85 1.3 WNW 22 33 12 18 1016.7 1017.1 0.0
30/08:30am 13.0 10.4 10.7 86 1.2 NW 15 20 8 11 1016.6 - 0.0
30/08:00am 12.8 9.4 10.5 86 1.2 NW 19 28 10 15 1016.3 - 0.0
30/07:30am 12.8 9.5 10.9 88 1.0 NW 19 26 10 14 1016.0 - 0.0
30/07:00am 12.7 9.4 10.9 89 0.9 NW 19 28 10 15 1015.8 - 0.0
30/06:30am 12.6 9.7 11.0 90 0.8 NW 17 22 9 12 1015.6 - 0.0
30/06:00am 12.5 9.6 10.9 90 0.8 WNW 17 24 9 13 1015.5 1015.8 0.0
30/05:30am 12.9 9.5 10.6 86 1.2 NW 19 28 10 15 1015.3 - 0.0
30/05:00am 13.0 9.6 10.4 84 1.4 NW 19 32 10 17 1015.1 - 0.0
30/04:30am 13.3 10.2 10.3 82 1.6 NW 17 24 9 13 1015.1 - 0.0
30/04:00am 12.9 10.4 9.7 81 1.6 NNW 13 22 7 12 1015.1 - 0.0
30/03:30am 13.6 10.0 9.8 78 2.0 NW 19 30 10 16 1015.2 - 0.0
30/03:00am 13.6 9.4 9.6 77 2.1 NW 22 32 12 17 1015.3 1015.6 0.0
30/02:30am 13.6 10.3 9.5 76 2.1 NNW 17 26 9 14 1015.4 - 0.0
30/02:00am 13.6 10.3 9.5 76 2.1 NNW 17 28 9 15 1015.5 - 0.0
30/01:30am 13.9 8.9 9.7 76 2.2 NW 26 37 14 20 1015.4 - 0.0
30/01:00am 13.6 9.7 9.6 77 2.1 NNW 20 26 11 14 1015.3 - 0.0
30/12:30am 13.8 9.9 9.5 75 2.2 NW 20 35 11 19 1015.7 - 0.0
30/12:00am 13.7 10.0 9.4 75 2.2 NW 19 28 10 15 1015.6 1015.9 0.0
 
Date/Time
EST
Temp
°C
App
Temp
°C
Dew
Point
Rel
Hum
%
Delta-T
°C
Wind Press
QNH
hPa
Press
MSL
hPa
Rain
since 9 am
mm
Dir
 
Spd
km/h
Gust
km/h
Spd
kts
Gust
kts
29/11:30pm 13.6 9.7 9.3 75 2.2 NW 20 30 11 16 1015.5 - 0.0
29/11:00pm 13.5 9.5 9.2 75 2.2 NW 20 30 11 16 1015.6 - 0.0
29/10:30pm 13.6 9.3 9.3 75 2.2 NW 22 37 12 20 1015.3 - 0.0
29/10:00pm 13.6 9.7 9.3 75 2.2 NW 20 26 11 14 1015.6 - 0.0

Other Formats:

Comma delimited format used in spreadsheet applications
http://www.bom.gov.au/fwo/IDV60801/IDV60801.94889.axf

JavaScript Object Notation format (JSON) in row-major order
http://www.bom.gov.au/fwo/IDV60801/IDV60801.94889.json